sensor_id;sensor_type;location;lat;lon;timestamp;P1;durP1;ratioP1;P2;durP2;ratioP2
74158;SDS011;62511;47.970;11.774;2023-03-14T00:00:54;1.65;;;0.85;;
74158;SDS011;62511;47.970;11.774;2023-03-14T00:03:20;1.63;;;0.88;;
74158;SDS011;62511;47.970;11.774;2023-03-14T00:05:46;3.13;;;0.82;;
74158;SDS011;62511;47.970;11.774;2023-03-14T00:08:12;3.05;;;1.00;;
74158;SDS011;62511;47.970;11.774;2023-03-14T00:10:38;1.42;;;0.80;;
74158;SDS011;62511;47.970;11.774;2023-03-14T00:13:04;1.67;;;0.50;;
74158;SDS011;62511;47.970;11.774;2023-03-14T00:15:32;1.25;;;0.77;;
74158;SDS011;62511;47.970;11.774;2023-03-14T00:17:58;1.40;;;0.60;;
74158;SDS011;62511;47.970;11.774;2023-03-14T00:20:24;0.90;;;0.68;;
74158;SDS011;62511;47.970;11.774;2023-03-14T00:22:50;0.80;;;0.80;;
74158;SDS011;62511;47.970;11.774;2023-03-14T00:25:16;2.83;;;1.25;;
74158;SDS011;62511;47.970;11.774;2023-03-14T00:27:42;2.67;;;1.25;;
74158;SDS011;62511;47.970;11.774;2023-03-14T00:30:09;2.83;;;1.40;;
74158;SDS011;62511;47.970;11.774;2023-03-14T00:32:35;2.47;;;1.10;;
74158;SDS011;62511;47.970;11.774;2023-03-14T00:35:03;2.97;;;0.90;;
74158;SDS011;62511;47.970;11.774;2023-03-14T00:37:29;1.08;;;0.70;;
74158;SDS011;62511;47.970;11.774;2023-03-14T00:39:55;1.95;;;0.88;;
74158;SDS011;62511;47.970;11.774;2023-03-14T00:42:22;0.80;;;0.38;;
74158;SDS011;62511;47.970;11.774;2023-03-14T00:44:48;1.10;;;0.70;;
74158;SDS011;62511;47.970;11.774;2023-03-14T00:47:14;1.35;;;0.60;;
74158;SDS011;62511;47.970;11.774;2023-03-14T00:49:40;1.20;;;0.60;;
74158;SDS011;62511;47.970;11.774;2023-03-14T00:52:08;1.15;;;0.68;;
74158;SDS011;62511;47.970;11.774;2023-03-14T00:54:34;3.08;;;0.50;;
74158;SDS011;62511;47.970;11.774;2023-03-14T00:57:00;0.38;;;0.38;;
74158;SDS011;62511;47.970;11.774;2023-03-14T00:59:26;0.85;;;0.55;;
74158;SDS011;62511;47.970;11.774;2023-03-14T01:01:52;0.55;;;0.30;;
74158;SDS011;62511;47.970;11.774;2023-03-14T01:04:18;0.40;;;0.30;;
74158;SDS011;62511;47.970;11.774;2023-03-14T01:06:44;0.63;;;0.32;;
74158;SDS011;62511;47.970;11.774;2023-03-14T01:09:10;0.30;;;0.28;;
74158;SDS011;62511;47.970;11.774;2023-03-14T01:11:36;0.60;;;0.30;;
74158;SDS011;62511;47.970;11.774;2023-03-14T01:14:02;1.02;;;0.30;;
74158;SDS011;62511;47.970;11.774;2023-03-14T01:16:30;0.22;;;0.20;;
74158;SDS011;62511;47.970;11.774;2023-03-14T01:18:56;0.20;;;0.20;;
74158;SDS011;62511;47.970;11.774;2023-03-14T01:21:23;0.10;;;0.10;;
74158;SDS011;62511;47.970;11.774;2023-03-14T01:23:50;0.40;;;0.20;;
74158;SDS011;62511;47.970;11.774;2023-03-14T01:26:17;0.20;;;0.20;;
74158;SDS011;62511;47.970;11.774;2023-03-14T01:28:44;0.15;;;0.13;;
74158;SDS011;62511;47.970;11.774;2023-03-14T01:31:10;0.25;;;0.20;;
74158;SDS011;62511;47.970;11.774;2023-03-14T01:33:36;0.50;;;0.10;;
74158;SDS011;62511;47.970;11.774;2023-03-14T01:36:03;0.20;;;0.10;;
74158;SDS011;62511;47.970;11.774;2023-03-14T01:38:29;0.13;;;0.13;;
74158;SDS011;62511;47.970;11.774;2023-03-14T01:40:56;0.10;;;0.10;;
74158;SDS011;62511;47.970;11.774;2023-03-14T01:43:22;0.10;;;0.10;;
74158;SDS011;62511;47.970;11.774;2023-03-14T01:48:52;0.20;;;0.20;;
74158;SDS011;62511;47.970;11.774;2023-03-14T01:51:21;0.20;;;0.20;;
74158;SDS011;62511;47.970;11.774;2023-03-14T01:53:50;0.10;;;0.10;;
74158;SDS011;62511;47.970;11.774;2023-03-14T01:56:16;0.10;;;0.10;;
74158;SDS011;62511;47.970;11.774;2023-03-14T01:58:44;0.30;;;0.15;;
74158;SDS011;62511;47.970;11.774;2023-03-14T02:01:12;0.10;;;0.10;;
74158;SDS011;62511;47.970;11.774;2023-03-14T02:06:06;0.30;;;0.30;;
74158;SDS011;62511;47.970;11.774;2023-03-14T02:08:35;0.10;;;0.10;;
74158;SDS011;62511;47.970;11.774;2023-03-14T02:11:02;0.30;;;0.30;;
74158;SDS011;62511;47.970;11.774;2023-03-14T02:13:29;1.55;;;0.55;;
74158;SDS011;62511;47.970;11.774;2023-03-14T02:15:55;0.90;;;0.25;;
74158;SDS011;62511;47.970;11.774;2023-03-14T02:18:21;0.43;;;0.20;;
74158;SDS011;62511;47.970;11.774;2023-03-14T02:23:51;0.30;;;0.30;;
74158;SDS011;62511;47.970;11.774;2023-03-14T02:26:18;0.63;;;0.40;;
74158;SDS011;62511;47.970;11.774;2023-03-14T02:28:46;2.25;;;0.30;;
74158;SDS011;62511;47.970;11.774;2023-03-14T02:31:13;0.95;;;0.30;;
74158;SDS011;62511;47.970;11.774;2023-03-14T02:33:39;0.68;;;0.20;;
74158;SDS011;62511;47.970;11.774;2023-03-14T02:36:06;0.30;;;0.30;;
74158;SDS011;62511;47.970;11.774;2023-03-14T02:38:37;0.10;;;0.10;;
74158;SDS011;62511;47.970;11.774;2023-03-14T02:43:52;0.08;;;0.08;;
74158;SDS011;62511;47.970;11.774;2023-03-14T02:46:20;0.68;;;0.25;;
74158;SDS011;62511;47.970;11.774;2023-03-14T02:51:12;0.60;;;0.22;;
74158;SDS011;62511;47.970;11.774;2023-03-14T02:53:39;1.92;;;0.20;;
74158;SDS011;62511;47.970;11.774;2023-03-14T02:56:06;1.45;;;0.30;;
74158;SDS011;62511;47.970;11.774;2023-03-14T02:58:32;0.20;;;0.20;;
74158;SDS011;62511;47.970;11.774;2023-03-14T03:00:58;0.20;;;0.10;;
74158;SDS011;62511;47.970;11.774;2023-03-14T03:03:24;0.20;;;0.20;;
74158;SDS011;62511;47.970;11.774;2023-03-14T03:05:51;0.25;;;0.20;;
74158;SDS011;62511;47.970;11.774;2023-03-14T03:08:18;0.00;;;0.00;;
74158;SDS011;62511;47.970;11.774;2023-03-14T03:10:44;2.58;;;0.20;;
74158;SDS011;62511;47.970;11.774;2023-03-14T03:13:10;0.10;;;0.10;;
74158;SDS011;62511;47.970;11.774;2023-03-14T03:15:36;0.20;;;0.10;;
74158;SDS011;62511;47.970;11.774;2023-03-14T03:18:04;0.98;;;0.13;;
74158;SDS011;62511;47.970;11.774;2023-03-14T03:20:30;0.30;;;0.30;;
74158;SDS011;62511;47.970;11.774;2023-03-14T03:22:56;0.90;;;0.13;;
74158;SDS011;62511;47.970;11.774;2023-03-14T03:25:23;0.20;;;0.20;;
74158;SDS011;62511;47.970;11.774;2023-03-14T03:27:49;0.10;;;0.10;;
74158;SDS011;62511;47.970;11.774;2023-03-14T03:30:15;0.10;;;0.10;;
74158;SDS011;62511;47.970;11.774;2023-03-14T03:32:41;0.25;;;0.22;;
74158;SDS011;62511;47.970;11.774;2023-03-14T03:35:07;3.85;;;0.20;;
74158;SDS011;62511;47.970;11.774;2023-03-14T03:37:34;0.20;;;0.20;;
74158;SDS011;62511;47.970;11.774;2023-03-14T03:40:00;0.00;;;0.00;;
74158;SDS011;62511;47.970;11.774;2023-03-14T03:42:26;0.00;;;0.00;;
74158;SDS011;62511;47.970;11.774;2023-03-14T03:44:52;0.50;;;0.10;;
74158;SDS011;62511;47.970;11.774;2023-03-14T03:47:18;0.20;;;0.20;;
74158;SDS011;62511;47.970;11.774;2023-03-14T03:49:44;0.98;;;0.20;;
74158;SDS011;62511;47.970;11.774;2023-03-14T03:52:10;2.03;;;0.30;;
74158;SDS011;62511;47.970;11.774;2023-03-14T03:54:36;0.20;;;0.20;;
74158;SDS011;62511;47.970;11.774;2023-03-14T03:57:02;0.15;;;0.15;;
74158;SDS011;62511;47.970;11.774;2023-03-14T03:59:28;0.20;;;0.20;;
74158;SDS011;62511;47.970;11.774;2023-03-14T04:01:54;0.10;;;0.03;;
74158;SDS011;62511;47.970;11.774;2023-03-14T04:04:20;0.15;;;0.13;;
74158;SDS011;62511;47.970;11.774;2023-03-14T04:06:46;0.20;;;0.08;;
74158;SDS011;62511;47.970;11.774;2023-03-14T04:09:12;0.03;;;0.03;;
74158;SDS011;62511;47.970;11.774;2023-03-14T04:11:38;0.15;;;0.15;;
74158;SDS011;62511;47.970;11.774;2023-03-14T04:14:04;0.20;;;0.10;;
74158;SDS011;62511;47.970;11.774;2023-03-14T04:16:31;0.10;;;0.10;;
74158;SDS011;62511;47.970;11.774;2023-03-14T04:18:57;0.52;;;0.03;;
74158;SDS011;62511;47.970;11.774;2023-03-14T04:21:23;0.10;;;0.10;;
74158;SDS011;62511;47.970;11.774;2023-03-14T04:23:49;0.10;;;0.10;;
74158;SDS011;62511;47.970;11.774;2023-03-14T04:26:15;0.20;;;0.20;;
74158;SDS011;62511;47.970;11.774;2023-03-14T04:28:42;0.30;;;0.20;;
74158;SDS011;62511;47.970;11.774;2023-03-14T04:31:08;0.40;;;0.20;;
74158;SDS011;62511;47.970;11.774;2023-03-14T04:33:34;0.10;;;0.10;;
74158;SDS011;62511;47.970;11.774;2023-03-14T04:36:02;0.10;;;0.10;;
74158;SDS011;62511;47.970;11.774;2023-03-14T04:38:29;0.00;;;0.00;;
74158;SDS011;62511;47.970;11.774;2023-03-14T04:40:55;0.15;;;0.15;;
74158;SDS011;62511;47.970;11.774;2023-03-14T04:43:21;1.40;;;0.10;;
74158;SDS011;62511;47.970;11.774;2023-03-14T04:45:47;0.03;;;0.03;;
74158;SDS011;62511;47.970;11.774;2023-03-14T04:48:13;0.20;;;0.10;;
74158;SDS011;62511;47.970;11.774;2023-03-14T04:50:39;0.00;;;0.00;;
74158;SDS011;62511;47.970;11.774;2023-03-14T04:53:05;0.28;;;0.20;;
74158;SDS011;62511;47.970;11.774;2023-03-14T04:55:32;0.05;;;0.05;;
74158;SDS011;62511;47.970;11.774;2023-03-14T04:57:58;0.00;;;0.00;;
74158;SDS011;62511;47.970;11.774;2023-03-14T05:00:24;0.22;;;0.20;;
74158;SDS011;62511;47.970;11.774;2023-03-14T05:02:51;0.25;;;0.20;;
74158;SDS011;62511;47.970;11.774;2023-03-14T05:05:18;0.93;;;0.40;;
74158;SDS011;62511;47.970;11.774;2023-03-14T05:07:44;0.80;;;0.50;;
74158;SDS011;62511;47.970;11.774;2023-03-14T05:10:12;0.77;;;0.75;;
74158;SDS011;62511;47.970;11.774;2023-03-14T05:12:38;1.23;;;0.68;;
74158;SDS011;62511;47.970;11.774;2023-03-14T05:15:04;1.10;;;0.70;;
74158;SDS011;62511;47.970;11.774;2023-03-14T05:17:31;2.08;;;0.70;;
74158;SDS011;62511;47.970;11.774;2023-03-14T05:19:58;1.08;;;0.60;;
74158;SDS011;62511;47.970;11.774;2023-03-14T05:22:24;3.72;;;1.15;;
74158;SDS011;62511;47.970;11.774;2023-03-14T05:24:50;1.17;;;0.98;;
74158;SDS011;62511;47.970;11.774;2023-03-14T05:27:16;1.42;;;0.40;;
74158;SDS011;62511;47.970;11.774;2023-03-14T05:29:42;0.50;;;0.20;;
74158;SDS011;62511;47.970;11.774;2023-03-14T05:32:09;2.97;;;0.80;;
74158;SDS011;62511;47.970;11.774;2023-03-14T05:34:35;2.92;;;1.55;;
74158;SDS011;62511;47.970;11.774;2023-03-14T05:37:01;1.20;;;1.08;;
74158;SDS011;62511;47.970;11.774;2023-03-14T05:39:27;0.52;;;0.50;;
74158;SDS011;62511;47.970;11.774;2023-03-14T05:41:52;0.20;;;0.17;;
74158;SDS011;62511;47.970;11.774;2023-03-14T05:44:20;0.17;;;0.10;;
74158;SDS011;62511;47.970;11.774;2023-03-14T05:46:46;0.20;;;0.20;;
74158;SDS011;62511;47.970;11.774;2023-03-14T05:49:12;0.20;;;0.20;;
74158;SDS011;62511;47.970;11.774;2023-03-14T05:51:38;0.30;;;0.30;;
74158;SDS011;62511;47.970;11.774;2023-03-14T05:54:04;0.35;;;0.30;;
74158;SDS011;62511;47.970;11.774;2023-03-14T05:56:30;0.65;;;0.43;;
74158;SDS011;62511;47.970;11.774;2023-03-14T05:58:57;0.10;;;0.10;;
74158;SDS011;62511;47.970;11.774;2023-03-14T06:01:23;0.52;;;0.30;;
74158;SDS011;62511;47.970;11.774;2023-03-14T06:03:49;1.00;;;0.47;;
74158;SDS011;62511;47.970;11.774;2023-03-14T06:06:15;0.30;;;0.20;;
74158;SDS011;62511;47.970;11.774;2023-03-14T06:08:41;0.82;;;0.17;;
74158;SDS011;62511;47.970;11.774;2023-03-14T06:11:07;0.25;;;0.10;;
74158;SDS011;62511;47.970;11.774;2023-03-14T06:13:34;0.20;;;0.20;;
74158;SDS011;62511;47.970;11.774;2023-03-14T06:16:00;0.70;;;0.30;;
74158;SDS011;62511;47.970;11.774;2023-03-14T06:18:26;0.10;;;0.10;;
74158;SDS011;62511;47.970;11.774;2023-03-14T06:20:55;0.35;;;0.35;;
74158;SDS011;62511;47.970;11.774;2023-03-14T06:23:21;1.08;;;0.73;;
74158;SDS011;62511;47.970;11.774;2023-03-14T06:25:47;1.98;;;0.80;;
74158;SDS011;62511;47.970;11.774;2023-03-14T06:28:15;1.65;;;0.70;;
74158;SDS011;62511;47.970;11.774;2023-03-14T06:30:41;1.58;;;0.93;;
74158;SDS011;62511;47.970;11.774;2023-03-14T06:33:07;2.03;;;0.80;;
74158;SDS011;62511;47.970;11.774;2023-03-14T06:35:33;1.35;;;0.90;;
74158;SDS011;62511;47.970;11.774;2023-03-14T06:37:59;1.45;;;1.02;;
74158;SDS011;62511;47.970;11.774;2023-03-14T06:40:25;2.90;;;1.20;;
74158;SDS011;62511;47.970;11.774;2023-03-14T06:42:51;1.90;;;1.02;;
74158;SDS011;62511;47.970;11.774;2023-03-14T06:45:17;1.45;;;1.00;;
74158;SDS011;62511;47.970;11.774;2023-03-14T06:47:43;0.98;;;0.75;;
74158;SDS011;62511;47.970;11.774;2023-03-14T06:50:10;1.23;;;0.95;;
74158;SDS011;62511;47.970;11.774;2023-03-14T06:52:36;2.88;;;0.63;;
74158;SDS011;62511;47.970;11.774;2023-03-14T06:55:02;0.80;;;0.60;;
74158;SDS011;62511;47.970;11.774;2023-03-14T06:57:28;0.80;;;0.40;;
74158;SDS011;62511;47.970;11.774;2023-03-14T06:59:54;1.10;;;0.63;;
74158;SDS011;62511;47.970;11.774;2023-03-14T07:02:20;2.58;;;0.80;;
74158;SDS011;62511;47.970;11.774;2023-03-14T07:04:47;1.05;;;0.55;;
74158;SDS011;62511;47.970;11.774;2023-03-14T07:07:13;0.82;;;0.70;;
74158;SDS011;62511;47.970;11.774;2023-03-14T07:09:39;0.70;;;0.60;;
74158;SDS011;62511;47.970;11.774;2023-03-14T07:12:06;1.38;;;0.77;;
74158;SDS011;62511;47.970;11.774;2023-03-14T07:14:32;2.00;;;0.95;;
74158;SDS011;62511;47.970;11.774;2023-03-14T07:16:58;3.72;;;1.25;;
74158;SDS011;62511;47.970;11.774;2023-03-14T07:19:24;3.03;;;1.30;;
74158;SDS011;62511;47.970;11.774;2023-03-14T07:21:50;3.85;;;1.63;;
74158;SDS011;62511;47.970;11.774;2023-03-14T07:24:17;1.20;;;0.70;;
74158;SDS011;62511;47.970;11.774;2023-03-14T07:26:44;0.60;;;0.30;;
74158;SDS011;62511;47.970;11.774;2023-03-14T07:29:10;0.20;;;0.20;;
74158;SDS011;62511;47.970;11.774;2023-03-14T07:31:36;0.15;;;0.10;;
74158;SDS011;62511;47.970;11.774;2023-03-14T07:34:02;0.05;;;0.05;;
74158;SDS011;62511;47.970;11.774;2023-03-14T07:36:28;0.30;;;0.20;;
74158;SDS011;62511;47.970;11.774;2023-03-14T07:38:55;0.70;;;0.40;;
74158;SDS011;62511;47.970;11.774;2023-03-14T07:41:21;0.22;;;0.08;;
74158;SDS011;62511;47.970;11.774;2023-03-14T07:43:48;0.10;;;0.10;;
74158;SDS011;62511;47.970;11.774;2023-03-14T07:46:15;0.20;;;0.20;;
74158;SDS011;62511;47.970;11.774;2023-03-14T07:48:42;0.20;;;0.20;;
74158;SDS011;62511;47.970;11.774;2023-03-14T07:51:08;0.30;;;0.20;;
74158;SDS011;62511;47.970;11.774;2023-03-14T07:53:34;0.85;;;0.22;;
74158;SDS011;62511;47.970;11.774;2023-03-14T07:56:02;1.50;;;0.20;;
74158;SDS011;62511;47.970;11.774;2023-03-14T07:58:28;1.95;;;0.17;;
74158;SDS011;62511;47.970;11.774;2023-03-14T08:00:54;0.20;;;0.20;;
74158;SDS011;62511;47.970;11.774;2023-03-14T08:03:20;0.30;;;0.20;;
74158;SDS011;62511;47.970;11.774;2023-03-14T08:05:49;0.10;;;0.10;;
74158;SDS011;62511;47.970;11.774;2023-03-14T08:08:15;0.50;;;0.30;;
74158;SDS011;62511;47.970;11.774;2023-03-14T08:10:42;0.47;;;0.40;;
74158;SDS011;62511;47.970;11.774;2023-03-14T08:13:08;0.77;;;0.47;;
74158;SDS011;62511;47.970;11.774;2023-03-14T08:15:34;0.50;;;0.30;;
74158;SDS011;62511;47.970;11.774;2023-03-14T08:18:01;0.32;;;0.30;;
74158;SDS011;62511;47.970;11.774;2023-03-14T08:20:29;0.52;;;0.40;;
74158;SDS011;62511;47.970;11.774;2023-03-14T08:22:56;0.35;;;0.35;;
74158;SDS011;62511;47.970;11.774;2023-03-14T08:25:22;0.47;;;0.35;;
74158;SDS011;62511;47.970;11.774;2023-03-14T08:27:49;0.30;;;0.30;;
74158;SDS011;62511;47.970;11.774;2023-03-14T08:30:15;0.57;;;0.40;;
74158;SDS011;62511;47.970;11.774;2023-03-14T08:32:42;0.35;;;0.30;;
74158;SDS011;62511;47.970;11.774;2023-03-14T08:35:08;0.40;;;0.30;;
74158;SDS011;62511;47.970;11.774;2023-03-14T08:37:35;0.30;;;0.30;;
74158;SDS011;62511;47.970;11.774;2023-03-14T08:40:02;0.75;;;0.30;;
74158;SDS011;62511;47.970;11.774;2023-03-14T08:42:48;0.68;;;0.30;;
74158;SDS011;62511;47.970;11.774;2023-03-14T08:45:14;0.50;;;0.50;;
74158;SDS011;62511;47.970;11.774;2023-03-14T08:47:41;1.40;;;0.60;;
74158;SDS011;62511;47.970;11.774;2023-03-14T08:50:08;0.80;;;0.60;;
74158;SDS011;62511;47.970;11.774;2023-03-14T08:52:35;2.58;;;0.90;;
74158;SDS011;62511;47.970;11.774;2023-03-14T08:55:03;1.08;;;0.68;;
74158;SDS011;62511;47.970;11.774;2023-03-14T08:57:30;1.50;;;0.47;;
74158;SDS011;62511;47.970;11.774;2023-03-14T08:59:56;2.85;;;0.40;;
74158;SDS011;62511;47.970;11.774;2023-03-14T09:02:23;0.68;;;0.40;;
74158;SDS011;62511;47.970;11.774;2023-03-14T09:04:49;0.45;;;0.30;;
74158;SDS011;62511;47.970;11.774;2023-03-14T09:07:16;0.75;;;0.43;;
74158;SDS011;62511;47.970;11.774;2023-03-14T09:09:42;0.45;;;0.45;;
74158;SDS011;62511;47.970;11.774;2023-03-14T09:12:08;1.42;;;0.60;;
74158;SDS011;62511;47.970;11.774;2023-03-14T09:14:34;1.77;;;0.80;;
74158;SDS011;62511;47.970;11.774;2023-03-14T09:17:00;5.03;;;1.98;;
74158;SDS011;62511;47.970;11.774;2023-03-14T09:19:27;2.67;;;1.92;;
74158;SDS011;62511;47.970;11.774;2023-03-14T09:21:53;3.00;;;1.75;;
74158;SDS011;62511;47.970;11.774;2023-03-14T09:24:20;2.53;;;1.25;;
74158;SDS011;62511;47.970;11.774;2023-03-14T09:26:46;0.60;;;0.52;;
74158;SDS011;62511;47.970;11.774;2023-03-14T09:29:12;2.78;;;0.40;;
74158;SDS011;62511;47.970;11.774;2023-03-14T09:31:38;0.30;;;0.30;;
74158;SDS011;62511;47.970;11.774;2023-03-14T09:34:04;0.38;;;0.38;;
74158;SDS011;62511;47.970;11.774;2023-03-14T09:36:30;0.77;;;0.45;;
74158;SDS011;62511;47.970;11.774;2023-03-14T09:38:56;0.52;;;0.50;;
74158;SDS011;62511;47.970;11.774;2023-03-14T09:41:35;1.38;;;0.70;;
74158;SDS011;62511;47.970;11.774;2023-03-14T09:46:29;1.45;;;0.90;;
74158;SDS011;62511;47.970;11.774;2023-03-14T09:48:57;2.22;;;1.02;;
74158;SDS011;62511;47.970;11.774;2023-03-14T09:51:23;1.40;;;1.02;;
74158;SDS011;62511;47.970;11.774;2023-03-14T09:53:50;1.50;;;1.08;;
74158;SDS011;62511;47.970;11.774;2023-03-14T09:56:18;2.83;;;0.90;;
74158;SDS011;62511;47.970;11.774;2023-03-14T09:58:47;2.58;;;1.23;;
74158;SDS011;62511;47.970;11.774;2023-03-14T10:01:15;0.98;;;0.80;;
74158;SDS011;62511;47.970;11.774;2023-03-14T10:03:42;0.73;;;0.60;;
74158;SDS011;62511;47.970;11.774;2023-03-14T10:06:13;0.77;;;0.75;;
74158;SDS011;62511;47.970;11.774;2023-03-14T10:08:43;1.50;;;1.00;;
74158;SDS011;62511;47.970;11.774;2023-03-14T10:11:12;1.95;;;0.90;;
74158;SDS011;62511;47.970;11.774;2023-03-14T10:13:47;1.85;;;1.00;;
74158;SDS011;62511;47.970;11.774;2023-03-14T10:16:13;0.73;;;0.70;;
74158;SDS011;62511;47.970;11.774;2023-03-14T10:18:39;1.10;;;0.50;;
74158;SDS011;62511;47.970;11.774;2023-03-14T10:21:28;1.10;;;0.70;;
74158;SDS011;62511;47.970;11.774;2023-03-14T10:24:06;2.08;;;0.80;;
74158;SDS011;62511;47.970;11.774;2023-03-14T10:26:33;0.65;;;0.60;;
74158;SDS011;62511;47.970;11.774;2023-03-14T10:29:18;1.60;;;0.60;;
74158;SDS011;62511;47.970;11.774;2023-03-14T10:34:16;2.03;;;0.95;;
74158;SDS011;62511;47.970;11.774;2023-03-14T10:36:42;1.20;;;0.73;;
74158;SDS011;62511;47.970;11.774;2023-03-14T10:41:50;2.17;;;1.10;;
74158;SDS011;62511;47.970;11.774;2023-03-14T10:44:19;1.67;;;1.00;;
74158;SDS011;62511;47.970;11.774;2023-03-14T10:46:47;0.80;;;0.57;;
74158;SDS011;62511;47.970;11.774;2023-03-14T10:49:36;0.70;;;0.43;;
74158;SDS011;62511;47.970;11.774;2023-03-14T10:54:35;0.45;;;0.40;;
74158;SDS011;62511;47.970;11.774;2023-03-14T10:57:01;0.80;;;0.50;;
74158;SDS011;62511;47.970;11.774;2023-03-14T10:59:33;0.28;;;0.20;;
74158;SDS011;62511;47.970;11.774;2023-03-14T11:07:42;0.30;;;0.20;;
74158;SDS011;62511;47.970;11.774;2023-03-14T11:13:00;0.20;;;0.20;;
74158;SDS011;62511;47.970;11.774;2023-03-14T11:20:46;0.52;;;0.10;;
74158;SDS011;62511;47.970;11.774;2023-03-14T11:23:24;0.10;;;0.10;;
74158;SDS011;62511;47.970;11.774;2023-03-14T11:28:40;0.10;;;0.10;;
74158;SDS011;62511;47.970;11.774;2023-03-14T11:39:01;1.25;;;0.20;;
74158;SDS011;62511;47.970;11.774;2023-03-14T11:41:39;0.40;;;0.40;;
74158;SDS011;62511;47.970;11.774;2023-03-14T11:44:25;0.20;;;0.20;;
74158;SDS011;62511;47.970;11.774;2023-03-14T11:52:20;0.35;;;0.20;;
74158;SDS011;62511;47.970;11.774;2023-03-14T11:54:53;0.40;;;0.25;;
74158;SDS011;62511;47.970;11.774;2023-03-14T11:57:21;0.15;;;0.15;;
74158;SDS011;62511;47.970;11.774;2023-03-14T12:02:40;0.30;;;0.30;;
74158;SDS011;62511;47.970;11.774;2023-03-14T12:08:18;0.57;;;0.57;;
74158;SDS011;62511;47.970;11.774;2023-03-14T12:10:46;0.10;;;0.10;;
74158;SDS011;62511;47.970;11.774;2023-03-14T12:13:14;0.52;;;0.50;;
74158;SDS011;62511;47.970;11.774;2023-03-14T12:15:46;0.28;;;0.20;;
74158;SDS011;62511;47.970;11.774;2023-03-14T12:18:34;0.82;;;0.60;;
74158;SDS011;62511;47.970;11.774;2023-03-14T12:21:00;0.70;;;0.47;;
74158;SDS011;62511;47.970;11.774;2023-03-14T12:23:27;1.08;;;0.73;;
74158;SDS011;62511;47.970;11.774;2023-03-14T12:28:35;0.20;;;0.20;;
74158;SDS011;62511;47.970;11.774;2023-03-14T12:33:45;0.22;;;0.20;;
74158;SDS011;62511;47.970;11.774;2023-03-14T12:36:12;1.10;;;0.30;;
74158;SDS011;62511;47.970;11.774;2023-03-14T12:38:58;0.35;;;0.10;;
74158;SDS011;62511;47.970;11.774;2023-03-14T12:41:46;0.15;;;0.08;;
74158;SDS011;62511;47.970;11.774;2023-03-14T12:47:14;0.13;;;0.03;;
74158;SDS011;62511;47.970;11.774;2023-03-14T12:49:50;0.10;;;0.10;;
74158;SDS011;62511;47.970;11.774;2023-03-14T12:52:22;0.28;;;0.20;;
74158;SDS011;62511;47.970;11.774;2023-03-14T12:59:58;0.40;;;0.40;;
74158;SDS011;62511;47.970;11.774;2023-03-14T13:02:28;0.40;;;0.30;;
74158;SDS011;62511;47.970;11.774;2023-03-14T13:10:15;0.93;;;0.55;;
74158;SDS011;62511;47.970;11.774;2023-03-14T13:12:56;0.40;;;0.20;;
74158;SDS011;62511;47.970;11.774;2023-03-14T13:15:23;0.93;;;0.70;;
74158;SDS011;62511;47.970;11.774;2023-03-14T13:17:50;1.55;;;0.75;;
74158;SDS011;62511;47.970;11.774;2023-03-14T13:20:36;0.57;;;0.43;;
74158;SDS011;62511;47.970;11.774;2023-03-14T13:23:03;0.50;;;0.30;;
74158;SDS011;62511;47.970;11.774;2023-03-14T13:25:31;0.00;;;0.00;;
74158;SDS011;62511;47.970;11.774;2023-03-14T13:27:57;0.10;;;0.10;;
74158;SDS011;62511;47.970;11.774;2023-03-14T13:30:25;0.52;;;0.10;;
74158;SDS011;62511;47.970;11.774;2023-03-14T13:32:52;0.28;;;0.28;;
74158;SDS011;62511;47.970;11.774;2023-03-14T13:35:29;0.10;;;0.10;;
74158;SDS011;62511;47.970;11.774;2023-03-14T13:37:56;0.65;;;0.20;;
74158;SDS011;62511;47.970;11.774;2023-03-14T13:40:29;0.10;;;0.10;;
74158;SDS011;62511;47.970;11.774;2023-03-14T13:42:59;0.30;;;0.30;;
74158;SDS011;62511;47.970;11.774;2023-03-14T13:45:25;0.10;;;0.10;;
74158;SDS011;62511;47.970;11.774;2023-03-14T13:47:51;0.22;;;0.10;;
74158;SDS011;62511;47.970;11.774;2023-03-14T13:50:17;0.50;;;0.40;;
74158;SDS011;62511;47.970;11.774;2023-03-14T13:52:44;0.38;;;0.20;;
74158;SDS011;62511;47.970;11.774;2023-03-14T13:55:15;0.65;;;0.40;;
74158;SDS011;62511;47.970;11.774;2023-03-14T14:00:17;0.13;;;0.13;;
74158;SDS011;62511;47.970;11.774;2023-03-14T14:02:44;0.50;;;0.40;;
74158;SDS011;62511;47.970;11.774;2023-03-14T14:05:10;0.65;;;0.40;;
74158;SDS011;62511;47.970;11.774;2023-03-14T14:07:37;0.80;;;0.63;;
74158;SDS011;62511;47.970;11.774;2023-03-14T14:10:04;0.65;;;0.57;;
74158;SDS011;62511;47.970;11.774;2023-03-14T14:14:57;1.40;;;0.77;;
74158;SDS011;62511;47.970;11.774;2023-03-14T14:17:26;0.80;;;0.40;;
74158;SDS011;62511;47.970;11.774;2023-03-14T14:19:53;1.58;;;0.75;;
74158;SDS011;62511;47.970;11.774;2023-03-14T14:22:21;0.80;;;0.50;;
74158;SDS011;62511;47.970;11.774;2023-03-14T14:24:47;0.90;;;0.60;;
74158;SDS011;62511;47.970;11.774;2023-03-14T14:27:15;0.52;;;0.30;;
74158;SDS011;62511;47.970;11.774;2023-03-14T14:29:42;2.15;;;0.60;;
74158;SDS011;62511;47.970;11.774;2023-03-14T14:32:11;0.30;;;0.30;;
74158;SDS011;62511;47.970;11.774;2023-03-14T14:37:21;0.60;;;0.60;;
74158;SDS011;62511;47.970;11.774;2023-03-14T14:39:48;0.57;;;0.50;;
74158;SDS011;62511;47.970;11.774;2023-03-14T14:42:15;0.55;;;0.32;;
74158;SDS011;62511;47.970;11.774;2023-03-14T14:44:42;0.40;;;0.20;;
74158;SDS011;62511;47.970;11.774;2023-03-14T14:47:12;0.40;;;0.30;;
74158;SDS011;62511;47.970;11.774;2023-03-14T14:49:38;3.08;;;0.88;;
74158;SDS011;62511;47.970;11.774;2023-03-14T14:52:16;2.10;;;0.90;;
74158;SDS011;62511;47.970;11.774;2023-03-14T14:54:44;2.20;;;1.23;;
74158;SDS011;62511;47.970;11.774;2023-03-14T14:57:22;2.00;;;1.15;;
74158;SDS011;62511;47.970;11.774;2023-03-14T14:59:49;1.23;;;0.73;;
74158;SDS011;62511;47.970;11.774;2023-03-14T15:02:37;1.65;;;1.00;;
74158;SDS011;62511;47.970;11.774;2023-03-14T15:05:04;1.33;;;0.55;;
74158;SDS011;62511;47.970;11.774;2023-03-14T15:07:31;2.55;;;1.30;;
74158;SDS011;62511;47.970;11.774;2023-03-14T15:09:57;1.58;;;1.00;;
74158;SDS011;62511;47.970;11.774;2023-03-14T15:12:23;0.80;;;0.80;;
74158;SDS011;62511;47.970;11.774;2023-03-14T15:14:49;0.85;;;0.28;;
74158;SDS011;62511;47.970;11.774;2023-03-14T15:17:15;1.85;;;1.27;;
74158;SDS011;62511;47.970;11.774;2023-03-14T15:19:41;0.75;;;0.40;;
74158;SDS011;62511;47.970;11.774;2023-03-14T15:22:14;0.47;;;0.47;;
74158;SDS011;62511;47.970;11.774;2023-03-14T15:24:41;1.15;;;0.55;;
74158;SDS011;62511;47.970;11.774;2023-03-14T15:27:12;0.65;;;0.50;;
74158;SDS011;62511;47.970;11.774;2023-03-14T15:29:40;1.15;;;0.68;;
74158;SDS011;62511;47.970;11.774;2023-03-14T15:32:08;0.93;;;0.50;;
74158;SDS011;62511;47.970;11.774;2023-03-14T15:34:35;0.52;;;0.40;;
74158;SDS011;62511;47.970;11.774;2023-03-14T15:37:01;1.15;;;0.60;;
74158;SDS011;62511;47.970;11.774;2023-03-14T15:39:32;0.60;;;0.50;;
74158;SDS011;62511;47.970;11.774;2023-03-14T15:41:58;0.85;;;0.82;;
74158;SDS011;62511;47.970;11.774;2023-03-14T15:44:24;0.52;;;0.30;;
74158;SDS011;62511;47.970;11.774;2023-03-14T15:46:51;1.25;;;0.70;;
74158;SDS011;62511;47.970;11.774;2023-03-14T15:49:17;0.10;;;0.10;;
74158;SDS011;62511;47.970;11.774;2023-03-14T15:51:43;0.25;;;0.10;;
74158;SDS011;62511;47.970;11.774;2023-03-14T15:54:08;1.75;;;0.30;;
74158;SDS011;62511;47.970;11.774;2023-03-14T15:56:35;0.20;;;0.20;;
74158;SDS011;62511;47.970;11.774;2023-03-14T15:59:01;0.43;;;0.40;;
74158;SDS011;62511;47.970;11.774;2023-03-14T16:01:27;1.48;;;0.75;;